Time,TemperatureF,DewpointF,PressureIn,WindDirection,WindDirectionDegrees,WindSpeedMPH,WindSpeedGustMPH,Humidity,HourlyPrecipIn,Conditions,Clouds,dailyrainin,SolarRadiationWatts/m^2,SoftwareType,DateUTC
2013-03-07 00:05:00,53.3,49.8,30.03,East,84,0.0,1.0,88,0.00,,,0.00,0,Wunderground v.1.15,2013-03-07 08:05:00,
2013-03-07 00:11:00,53.3,49.8,30.03,East,84,0.0,1.0,88,0.00,,,0.00,0,Wunderground v.1.15,2013-03-07 08:11:00,
2013-03-07 00:16:00,53.3,49.8,30.03,ESE,111,1.0,1.0,88,0.00,,,0.00,0,Wunderground v.1.15,2013-03-07 08:16:00,
2013-03-07 00:22:00,53.4,49.9,30.02,East,84,1.0,1.0,88,0.00,,,0.00,0,Wunderground v.1.15,2013-03-07 08:22:00,
2013-03-07 00:28:00,53.5,49.7,30.02,ENE,76,1.0,2.0,87,0.00,,,0.00,0,Wunderground v.1.15,2013-03-07 08:28:00,
2013-03-07 00:34:00,53.6,49.8,30.02,ENE,76,0.0,1.0,87,0.00,,,0.00,0,Wunderground v.1.15,2013-03-07 08:34:00,
2013-03-07 00:40:00,53.6,49.8,30.03,ENE,76,0.0,1.0,87,0.00,,,0.00,0,Wunderground v.1.15,2013-03-07 08:40:00,
2013-03-07 00:46:00,53.6,49.8,30.03,SE,146,0.0,2.0,87,0.00,,,0.00,0,Wunderground v.1.15,2013-03-07 08:46:00,
2013-03-07 00:52:00,53.3,49.8,30.03,West,259,1.0,1.0,88,0.00,,,0.00,0,Wunderground v.1.15,2013-03-07 08:52:00,
2013-03-07 00:58:00,53.2,50.0,30.03,SW,215,2.0,3.0,89,0.00,,,0.00,0,Wunderground v.1.15,2013-03-07 08:58:00,
2013-03-07 01:03:00,52.9,50.0,30.03,NW,313,2.0,2.0,90,0.00,,,0.00,0,Wunderground v.1.15,2013-03-07 09:03:00,
2013-03-07 01:08:00,52.7,50.1,30.03,NW,313,2.0,4.0,91,0.00,,,0.00,0,Wunderground v.1.15,2013-03-07 09:08:00,
2013-03-07 01:15:00,52.4,50.1,30.02,NW,309,1.0,2.0,92,0.00,,,0.00,0,Wunderground v.1.15,2013-03-07 09:15:00,
2013-03-07 01:20:00,52.3,50.0,30.03,NW,309,1.0,2.0,92,0.00,,,0.00,0,Wunderground v.1.15,2013-03-07 09:20:00,
2013-03-07 01:26:00,52.3,50.0,30.02,NW,309,0.0,1.0,92,0.00,,,0.00,0,Wunderground v.1.15,2013-03-07 09:26:00,
2013-03-07 01:32:00,52.2,49.9,30.02,NW,309,0.0,0.0,92,0.00,,,0.00,0,Wunderground v.1.15,2013-03-07 09:32:00,
2013-03-07 01:37:00,52.4,50.1,30.02,NW,309,0.0,0.0,92,0.00,,,0.00,0,Wunderground v.1.15,2013-03-07 09:37:00,
2013-03-07 01:43:00,52.5,50.2,30.02,NW,309,0.0,0.0,92,0.00,,,0.00,0,Wunderground v.1.15,2013-03-07 09:43:00,
2013-03-07 01:49:00,52.4,50.1,30.02,NW,309,0.0,0.0,92,0.00,,,0.00,0,Wunderground v.1.15,2013-03-07 09:49:00,
2013-03-07 01:54:00,52.5,50.2,30.02,NW,309,0.0,0.0,92,0.00,,,0.00,0,Wunderground v.1.15,2013-03-07 09:54:00,
2013-03-07 01:59:00,52.4,50.1,30.01,NW,309,0.0,0.0,92,0.00,,,0.00,0,Wunderground v.1.15,2013-03-07 09:59:00,
2013-03-07 02:05:00,52.5,50.2,30.01,NW,309,0.0,1.0,92,0.00,,,0.00,0,Wunderground v.1.15,2013-03-07 10:05:00,
2013-03-07 02:11:00,52.4,50.4,30.01,NW,309,0.0,1.0,93,0.00,,,0.01,0,Wunderground v.1.15,2013-03-07 10:11:00,
2013-03-07 02:17:00,52.4,50.4,30.01,NW,309,1.0,2.0,93,0.23,,,0.03,0,Wunderground v.1.15,2013-03-07 10:17:00,
2013-03-07 02:21:00,52.6,50.6,30.01,NW,309,0.0,0.0,93,0.16,,,0.04,0,Wunderground v.1.15,2013-03-07 10:21:00,
2013-03-07 02:27:00,52.4,50.4,30.01,SW,236,1.0,2.0,93,0.07,,,0.04,0,Wunderground v.1.15,2013-03-07 10:27:00,
2013-03-07 02:33:00,52.1,50.1,30.01,West,264,2.0,3.0,93,0.04,,,0.04,0,Wunderground v.1.15,2013-03-07 10:33:00,
2013-03-07 02:39:00,52.1,50.1,30.01,West,269,2.0,3.0,93,0.00,,,0.04,0,Wunderground v.1.15,2013-03-07 10:39:00,
2013-03-07 02:45:00,52.1,50.1,30.01,WSW,254,1.0,2.0,93,0.00,,,0.04,0,Wunderground v.1.15,2013-03-07 10:45:00,
2013-03-07 02:51:00,52.0,50.0,30.01,WSW,254,1.0,2.0,93,0.00,,,0.05,0,Wunderground v.1.15,2013-03-07 10:51:00,
2013-03-07 02:56:00,52.0,50.0,30.01,WSW,254,1.0,1.0,93,0.00,,,0.05,0,Wunderground v.1.15,2013-03-07 10:56:00,
2013-03-07 03:02:00,52.2,50.5,30.01,WSW,254,0.0,0.0,94,0.00,,,0.05,0,Wunderground v.1.15,2013-03-07 11:02:00,
2013-03-07 03:08:00,52.2,50.5,30.01,WSW,254,0.0,1.0,94,0.00,,,0.05,0,Wunderground v.1.15,2013-03-07 11:08:00,
2013-03-07 03:14:00,52.5,50.8,30.00,WSW,254,0.0,0.0,94,0.00,,,0.05,0,Wunderground v.1.15,2013-03-07 11:14:00,
2013-03-07 03:19:00,52.4,50.7,30.01,WSW,254,0.0,0.0,94,0.00,,,0.05,0,Wunderground v.1.15,2013-03-07 11:19:00,
2013-03-07 03:26:00,52.5,50.8,30.01,WSW,254,0.0,0.0,94,0.00,,,0.05,0,Wunderground v.1.15,2013-03-07 11:26:00,
2013-03-07 03:31:00,52.4,50.7,30.01,WSW,254,0.0,0.0,94,0.00,,,0.05,0,Wunderground v.1.15,2013-03-07 11:31:00,
2013-03-07 03:37:00,52.5,50.8,30.01,WSW,254,0.0,0.0,94,0.00,,,0.05,0,Wunderground v.1.15,2013-03-07 11:37:00,
2013-03-07 03:43:00,52.4,50.4,30.01,SSW,205,0.0,0.0,93,0.00,,,0.05,0,Wunderground v.1.15,2013-03-07 11:43:00,
2013-03-07 03:49:00,52.3,50.6,30.01,SSW,205,0.0,0.0,94,0.00,,,0.05,0,Wunderground v.1.15,2013-03-07 11:49:00,
2013-03-07 03:55:00,52.3,50.6,30.01,SSW,205,0.0,0.0,94,0.00,,,0.05,0,Wunderground v.1.15,2013-03-07 11:55:00,
2013-03-07 04:01:00,52.3,50.6,30.01,SSW,205,0.0,0.0,94,0.00,,,0.05,0,Wunderground v.1.15,2013-03-07 12:01:00,
2013-03-07 04:06:00,52.6,50.9,30.01,SSW,205,0.0,0.0,94,0.00,,,0.05,0,Wunderground v.1.15,2013-03-07 12:06:00,
2013-03-07 04:12:00,52.6,50.6,30.01,SSW,205,0.0,0.0,93,0.00,,,0.05,0,Wunderground v.1.15,2013-03-07 12:12:00,
2013-03-07 04:18:00,52.5,50.5,30.01,SSW,205,0.0,0.0,93,0.00,,,0.05,0,Wunderground v.1.15,2013-03-07 12:18:00,
2013-03-07 04:23:00,52.5,50.8,30.01,SSW,205,0.0,0.0,94,0.00,,,0.05,0,Wunderground v.1.15,2013-03-07 12:23:00,
2013-03-07 04:29:00,52.4,50.4,30.01,SSW,205,0.0,0.0,93,0.00,,,0.05,0,Wunderground v.1.15,2013-03-07 12:29:00,
2013-03-07 04:35:00,52.2,50.5,30.01,SSW,205,0.0,1.0,94,0.00,,,0.05,0,Wunderground v.1.15,2013-03-07 12:35:00,
2013-03-07 04:41:00,52.2,50.5,30.01,SSW,205,0.0,1.0,94,0.00,,,0.05,0,Wunderground v.1.15,2013-03-07 12:41:00,
2013-03-07 04:47:00,52.3,50.6,30.01,SSW,198,0.0,0.0,94,0.00,,,0.05,0,Wunderground v.1.15,2013-03-07 12:47:00,
2013-03-07 04:52:00,52.2,50.5,30.01,South,171,0.0,0.0,94,0.00,,,0.05,0,Wunderground v.1.15,2013-03-07 12:52:00,
2013-03-07 04:58:00,52.0,50.3,30.00,South,169,0.0,2.0,94,0.00,,,0.05,0,Wunderground v.1.15,2013-03-07 12:58:00,
2013-03-07 05:03:00,52.1,50.4,30.00,SSE,162,0.0,1.0,94,0.00,,,0.05,0,Wunderground v.1.15,2013-03-07 13:03:00,
2013-03-07 05:09:00,52.2,50.5,30.01,SE,144,1.0,2.0,94,0.00,,,0.05,0,Wunderground v.1.15,2013-03-07 13:09:00,
2013-03-07 05:15:00,52.3,50.6,30.00,SE,144,1.0,1.0,94,0.00,,,0.05,0,Wunderground v.1.15,2013-03-07 13:15:00,
2013-03-07 05:21:00,52.3,50.6,30.00,SE,126,1.0,3.0,94,0.00,,,0.05,0,Wunderground v.1.15,2013-03-07 13:21:00,
2013-03-07 05:27:00,52.4,50.7,30.01,ESE,123,1.0,2.0,94,0.00,,,0.05,0,Wunderground v.1.15,2013-03-07 13:27:00,
2013-03-07 05:32:00,52.4,50.4,30.01,SE,125,1.0,1.0,93,0.00,,,0.05,0,Wunderground v.1.15,2013-03-07 13:32:00,
2013-03-07 05:38:00,52.4,50.4,30.01,SE,125,0.0,1.0,93,0.00,,,0.05,0,Wunderground v.1.15,2013-03-07 13:38:00,
2013-03-07 05:44:00,52.6,50.6,30.00,SE,125,0.0,0.0,93,0.00,,,0.05,0,Wunderground v.1.15,2013-03-07 13:44:00,
2013-03-07 05:50:00,52.6,50.6,30.00,ESE,119,0.0,1.0,93,0.00,,,0.05,0,Wunderground v.1.15,2013-03-07 13:50:00,
2013-03-07 05:55:00,52.6,50.6,30.00,ESE,119,0.0,1.0,93,0.00,,,0.05,0,Wunderground v.1.15,2013-03-07 13:55:00,
2013-03-07 06:00:00,52.5,50.5,30.00,ESE,119,0.0,1.0,93,0.00,,,0.05,0,Wunderground v.1.15,2013-03-07 14:00:00,
2013-03-07 06:06:00,52.2,50.2,30.01,ESE,119,0.0,0.0,93,0.00,,,0.05,0,Wunderground v.1.15,2013-03-07 14:06:00,
2013-03-07 06:12:00,52.2,50.2,30.01,ESE,119,0.0,0.0,93,0.00,,,0.05,7,Wunderground v.1.15,2013-03-07 14:12:00,
2013-03-07 06:18:00,52.1,50.1,30.01,ESE,119,0.0,0.0,93,0.00,,,0.05,9,Wunderground v.1.15,2013-03-07 14:18:00,
2013-03-07 06:23:00,52.2,50.5,30.01,ESE,119,0.0,0.0,94,0.00,,,0.05,9,Wunderground v.1.15,2013-03-07 14:23:00,
2013-03-07 06:29:00,52.2,50.5,30.01,ESE,119,0.0,0.0,94,0.00,,,0.05,9,Wunderground v.1.15,2013-03-07 14:29:00,
2013-03-07 06:34:00,52.2,50.5,30.01,ESE,119,0.0,1.0,94,0.00,,,0.05,21,Wunderground v.1.15,2013-03-07 14:34:00,
2013-03-07 06:40:00,52.3,50.6,30.01,ESE,119,0.0,1.0,94,0.00,,,0.05,54,Wunderground v.1.15,2013-03-07 14:40:00,
2013-03-07 06:46:00,52.4,50.7,30.01,ESE,119,0.0,1.0,94,0.00,,,0.05,72,Wunderground v.1.15,2013-03-07 14:46:00,
2013-03-07 06:52:00,52.4,50.7,30.01,ESE,119,0.0,0.0,94,0.00,,,0.05,69,Wunderground v.1.15,2013-03-07 14:52:00,
2013-03-07 06:58:00,52.7,51.0,30.01,East,89,0.0,1.0,94,0.00,,,0.05,72,Wunderground v.1.15,2013-03-07 14:58:00,
2013-03-07 07:03:00,53.1,51.4,30.01,East,89,0.0,0.0,94,0.00,,,0.05,84,Wunderground v.1.15,2013-03-07 15:03:00,
2013-03-07 07:09:00,53.1,51.1,30.02,East,86,0.0,3.0,93,0.00,,,0.05,102,Wunderground v.1.15,2013-03-07 15:09:00,
2013-03-07 07:15:00,53.4,51.1,30.01,ENE,77,1.0,2.0,92,0.00,,,0.05,91,Wunderground v.1.15,2013-03-07 15:15:00,
2013-03-07 07:20:00,53.5,50.6,30.01,East,82,1.0,3.0,90,0.00,,,0.05,93,Wunderground v.1.15,2013-03-07 15:20:00,
2013-03-07 07:26:00,53.6,50.4,30.01,ESE,104,2.0,3.0,89,0.00,,,0.05,104,Wunderground v.1.15,2013-03-07 15:26:00,
2013-03-07 07:32:00,53.8,50.3,30.02,East,92,2.0,2.0,88,0.00,,,0.05,130,Wunderground v.1.15,2013-03-07 15:32:00,
2013-03-07 07:38:00,54.0,50.2,30.02,ESE,123,2.0,5.0,87,0.00,,,0.05,155,Wunderground v.1.15,2013-03-07 15:38:00,
2013-03-07 07:43:00,54.2,50.4,30.02,SE,127,1.0,2.0,87,0.00,,,0.05,142,Wunderground v.1.15,2013-03-07 15:43:00,
2013-03-07 07:49:00,54.4,50.3,30.02,East,87,1.0,3.0,86,0.00,,,0.05,134,Wunderground v.1.15,2013-03-07 15:49:00,
2013-03-07 07:55:00,54.4,50.3,30.02,East,85,2.0,3.0,86,0.00,,,0.05,91,Wunderground v.1.15,2013-03-07 15:55:00,
2013-03-07 08:01:00,54.5,50.4,30.02,East,91,1.0,3.0,86,0.00,,,0.05,74,Wunderground v.1.15,2013-03-07 16:01:00,
2013-03-07 08:06:00,54.5,50.4,30.02,East,91,1.0,3.0,86,0.00,,,0.05,104,Wunderground v.1.15,2013-03-07 16:06:00,
2013-03-07 08:12:00,54.5,50.4,30.02,ESE,106,2.0,2.0,86,0.00,,,0.05,146,Wunderground v.1.15,2013-03-07 16:12:00,
2013-03-07 08:18:00,54.8,50.4,30.02,ESE,123,2.0,4.0,85,0.00,,,0.05,179,Wunderground v.1.15,2013-03-07 16:18:00,
2013-03-07 08:24:00,54.9,49.8,30.02,East,96,2.0,2.0,83,0.00,,,0.05,174,Wunderground v.1.15,2013-03-07 16:24:00,
2013-03-07 08:29:00,55.2,50.1,30.02,East,90,1.0,2.0,83,0.00,,,0.05,190,Wunderground v.1.15,2013-03-07 16:29:00,
2013-03-07 08:35:00,55.1,50.0,30.02,East,98,1.0,3.0,83,0.00,,,0.05,209,Wunderground v.1.15,2013-03-07 16:35:00,
2013-03-07 08:41:00,55.3,50.2,30.02,ESE,122,1.0,2.0,83,0.00,,,0.05,181,Wunderground v.1.15,2013-03-07 16:41:00,
2013-03-07 08:47:00,55.5,50.1,30.02,SE,140,2.0,4.0,82,0.00,,,0.05,163,Wunderground v.1.15,2013-03-07 16:47:00,
2013-03-07 08:52:00,55.8,50.4,30.02,SE,133,2.0,3.0,82,0.00,,,0.05,160,Wunderground v.1.15,2013-03-07 16:52:00,
2013-03-07 08:57:00,55.7,50.0,30.02,ESE,104,2.0,4.0,81,0.00,,,0.05,181,Wunderground v.1.15,2013-03-07 16:57:00,
2013-03-07 09:03:00,55.6,49.5,30.02,SE,124,2.0,3.0,80,0.00,,,0.05,165,Wunderground v.1.15,2013-03-07 17:03:00,
2013-03-07 09:09:00,55.8,49.7,30.02,SE,145,2.0,4.0,80,0.00,,,0.05,162,Wunderground v.1.15,2013-03-07 17:09:00,
2013-03-07 09:14:00,55.8,49.7,30.02,SSE,156,2.0,4.0,80,0.00,,,0.05,186,Wunderground v.1.15,2013-03-07 17:14:00,
2013-03-07 09:19:00,55.9,49.8,30.01,SE,145,3.0,4.0,80,0.00,,,0.05,213,Wunderground v.1.15,2013-03-07 17:19:00,
2013-03-07 09:24:00,56.1,49.0,30.01,SE,129,2.0,4.0,77,0.00,,,0.05,292,Wunderground v.1.15,2013-03-07 17:24:00,
2013-03-07 09:29:00,56.4,50.0,30.01,East,94,1.0,4.0,79,0.00,,,0.05,267,Wunderground v.1.15,2013-03-07 17:29:00,
2013-03-07 09:35:00,56.6,49.8,30.01,ESE,115,2.0,6.0,78,0.00,,,0.05,265,Wunderground v.1.15,2013-03-07 17:35:00,
2013-03-07 09:41:00,56.6,49.5,30.01,ESE,112,4.0,6.0,77,0.00,,,0.05,299,Wunderground v.1.15,2013-03-07 17:41:00,
2013-03-07 09:47:00,56.6,48.8,30.01,SE,134,3.0,3.0,75,0.00,,,0.05,290,Wunderground v.1.15,2013-03-07 17:47:00,
2013-03-07 09:52:00,57.0,48.8,30.01,East,92,2.0,2.0,74,0.00,,,0.05,320,Wunderground v.1.15,2013-03-07 17:52:00,
2013-03-07 09:57:00,57.3,49.1,30.01,East,80,1.0,2.0,74,0.00,,,0.05,278,Wunderground v.1.15,2013-03-07 17:57:00,
2013-03-07 10:03:00,57.2,48.3,30.01,ESE,117,3.0,5.0,72,0.00,,,0.05,265,Wunderground v.1.15,2013-03-07 18:03:00,
2013-03-07 10:09:00,57.3,48.7,30.02,ESE,115,3.0,5.0,73,0.00,,,0.05,237,Wunderground v.1.15,2013-03-07 18:09:00,
2013-03-07 10:15:00,57.4,47.7,30.02,ESE,123,2.0,4.0,70,0.00,,,0.05,185,Wunderground v.1.15,2013-03-07 18:15:00,
2013-03-07 10:21:00,57.4,48.4,30.01,ESE,117,1.0,4.0,72,0.00,,,0.05,230,Wunderground v.1.15,2013-03-07 18:21:00,
2013-03-07 10:27:00,57.3,48.3,30.01,East,98,1.0,2.0,72,0.00,,,0.05,343,Wunderground v.1.15,2013-03-07 18:27:00,
2013-03-07 10:32:00,57.8,47.7,30.01,East,96,1.0,2.0,69,0.00,,,0.05,348,Wunderground v.1.15,2013-03-07 18:32:00,
2013-03-07 10:38:00,57.8,48.1,30.01,West,267,2.0,3.0,70,0.00,,,0.05,271,Wunderground v.1.15,2013-03-07 18:38:00,
2013-03-07 10:44:00,58.0,47.1,30.01,East,86,2.0,5.0,67,0.00,,,0.05,188,Wunderground v.1.15,2013-03-07 18:44:00,
2013-03-07 10:50:00,57.9,47.4,30.01,SSE,163,2.0,5.0,68,0.00,,,0.05,171,Wunderground v.1.15,2013-03-07 18:50:00,
2013-03-07 10:56:00,57.6,47.5,30.01,South,178,2.0,4.0,69,0.00,,,0.05,139,Wunderground v.1.15,2013-03-07 18:56:00,
2013-03-07 11:01:00,57.4,46.9,30.01,SE,146,2.0,8.0,68,0.00,,,0.05,158,Wunderground v.1.15,2013-03-07 19:01:00,
2013-03-07 11:06:00,57.4,46.5,30.01,SE,137,2.0,3.0,67,0.00,,,0.05,209,Wunderground v.1.15,2013-03-07 19:06:00,
2013-03-07 11:12:00,57.6,46.3,30.02,SE,144,2.0,2.0,66,0.00,,,0.05,278,Wunderground v.1.15,2013-03-07 19:12:00,
2013-03-07 11:18:00,57.5,45.8,30.01,NE,45,1.0,2.0,65,0.00,,,0.05,248,Wunderground v.1.15,2013-03-07 19:18:00,
2013-03-07 11:24:00,57.9,45.8,30.01,SSE,168,1.0,3.0,64,0.00,,,0.05,308,Wunderground v.1.15,2013-03-07 19:24:00,
2013-03-07 11:29:00,58.2,46.5,30.01,West,270,2.0,5.0,65,0.00,,,0.05,343,Wunderground v.1.15,2013-03-07 19:29:00,
2013-03-07 11:34:00,57.8,45.7,30.01,SW,229,2.0,2.0,64,0.00,,,0.05,295,Wunderground v.1.15,2013-03-07 19:34:00,
2013-03-07 11:40:00,58.2,46.5,30.01,ESE,117,3.0,8.0,65,0.00,,,0.05,223,Wunderground v.1.15,2013-03-07 19:40:00,
2013-03-07 11:46:00,58.0,46.7,30.01,WSW,246,3.0,6.0,66,0.00,,,0.05,253,Wunderground v.1.15,2013-03-07 19:46:00,
2013-03-07 11:52:00,57.9,47.0,30.00,SSW,211,2.0,2.0,67,0.00,,,0.05,241,Wunderground v.1.15,2013-03-07 19:52:00,
2013-03-07 11:57:00,58.0,45.9,30.00,SE,146,2.0,5.0,64,0.00,,,0.05,281,Wunderground v.1.15,2013-03-07 19:57:00,
2013-03-07 12:03:00,57.8,46.1,30.00,WNW,288,2.0,3.0,65,0.00,,,0.05,302,Wunderground v.1.15,2013-03-07 20:03:00,
2013-03-07 12:08:00,58.1,47.2,30.00,South,176,2.0,6.0,67,0.00,,,0.05,257,Wunderground v.1.15,2013-03-07 20:08:00,
2013-03-07 12:14:00,58.0,46.7,30.00,ESE,103,3.0,4.0,66,0.00,,,0.05,257,Wunderground v.1.15,2013-03-07 20:14:00,
2013-03-07 12:19:00,58.2,46.9,29.99,NE,51,2.0,4.0,66,0.00,,,0.05,288,Wunderground v.1.15,2013-03-07 20:19:00,
2013-03-07 12:24:00,58.7,47.4,29.99,SSW,209,2.0,6.0,66,0.00,,,0.05,457,Wunderground v.1.15,2013-03-07 20:24:00,
2013-03-07 12:30:00,59.0,47.2,29.98,East,90,2.0,6.0,65,0.00,,,0.05,371,Wunderground v.1.15,2013-03-07 20:30:00,
2013-03-07 12:35:00,58.8,47.1,29.98,East,98,2.0,6.0,65,0.00,,,0.05,279,Wunderground v.1.15,2013-03-07 20:35:00,
2013-03-07 12:42:00,58.6,46.5,29.98,SE,138,4.0,4.0,64,0.00,,,0.05,250,Wunderground v.1.15,2013-03-07 20:42:00,
2013-03-07 12:47:00,58.5,47.2,29.98,ESE,123,2.0,4.0,66,0.00,,,0.05,169,Wunderground v.1.15,2013-03-07 20:47:00,
2013-03-07 12:53:00,58.7,47.4,29.97,SSW,203,2.0,2.0,66,0.00,,,0.05,146,Wunderground v.1.15,2013-03-07 20:53:00,
2013-03-07 12:59:00,58.4,46.3,29.97,WNW,284,2.0,3.0,64,0.00,,,0.05,144,Wunderground v.1.15,2013-03-07 20:59:00,
2013-03-07 13:05:00,58.4,45.8,29.97,West,265,3.0,9.0,63,0.00,,,0.05,223,Wunderground v.1.15,2013-03-07 21:05:00,
2013-03-07 13:11:00,58.8,46.2,29.97,SSW,209,5.0,9.0,63,0.00,,,0.05,722,Wunderground v.1.15,2013-03-07 21:11:00,
2013-03-07 13:17:00,59.3,46.7,29.97,WSW,257,5.0,9.0,63,0.00,,,0.05,390,Wunderground v.1.15,2013-03-07 21:17:00,
2013-03-07 13:22:00,59.3,45.4,29.96,WSW,248,5.0,11.0,60,0.00,,,0.05,360,Wunderground v.1.15,2013-03-07 21:22:00,
2013-03-07 13:28:00,59.2,45.8,29.96,SW,225,6.0,11.0,61,0.00,,,0.05,262,Wunderground v.1.15,2013-03-07 21:28:00,
2013-03-07 13:34:00,59.0,46.0,29.96,South,186,5.0,8.0,62,0.00,,,0.05,171,Wunderground v.1.15,2013-03-07 21:34:00,
2013-03-07 13:39:00,58.8,45.4,29.96,West,277,4.0,8.0,61,0.00,,,0.05,118,Wunderground v.1.15,2013-03-07 21:39:00,
2013-03-07 13:45:00,58.3,45.3,29.96,WSW,256,5.0,8.0,62,0.00,,,0.05,91,Wunderground v.1.15,2013-03-07 21:45:00,
2013-03-07 13:51:00,57.9,44.5,29.96,WSW,256,6.0,10.0,61,0.00,,,0.05,86,Wunderground v.1.15,2013-03-07 21:51:00,
2013-03-07 13:56:00,57.8,44.9,29.96,WNW,302,5.0,6.0,62,0.00,,,0.05,135,Wunderground v.1.15,2013-03-07 21:56:00,
2013-03-07 14:02:00,58.1,44.3,29.96,SW,221,4.0,4.0,60,0.00,,,0.05,156,Wunderground v.1.15,2013-03-07 22:02:00,
2013-03-07 14:07:00,58.0,44.2,29.96,WSW,252,4.0,7.0,60,0.00,,,0.05,206,Wunderground v.1.15,2013-03-07 22:07:00,
2013-03-07 14:14:00,58.2,43.9,29.95,SSW,197,5.0,7.0,59,0.00,,,0.05,193,Wunderground v.1.15,2013-03-07 22:14:00,
2013-03-07 14:20:00,58.1,43.8,29.96,SW,225,5.0,7.0,59,0.00,,,0.05,176,Wunderground v.1.15,2013-03-07 22:20:00,
2013-03-07 14:26:00,58.2,43.9,29.96,SSW,211,4.0,6.0,59,0.00,,,0.05,199,Wunderground v.1.15,2013-03-07 22:26:00,
2013-03-07 14:32:00,58.2,43.5,29.96,SSW,212,4.0,7.0,58,0.00,,,0.05,211,Wunderground v.1.15,2013-03-07 22:32:00,
2013-03-07 14:37:00,58.3,44.5,29.96,WSW,248,5.0,7.0,60,0.00,,,0.05,207,Wunderground v.1.15,2013-03-07 22:37:00,
2013-03-07 14:43:00,58.2,44.4,29.96,SSW,193,5.0,5.0,60,0.00,,,0.05,195,Wunderground v.1.15,2013-03-07 22:43:00,
2013-03-07 14:49:00,58.3,44.5,29.96,WSW,255,4.0,5.0,60,0.00,,,0.05,200,Wunderground v.1.15,2013-03-07 22:49:00,
2013-03-07 14:55:00,58.4,44.1,29.96,SW,234,4.0,4.0,59,0.00,,,0.05,192,Wunderground v.1.15,2013-03-07 22:55:00,
2013-03-07 15:01:00,58.2,43.9,29.96,SSW,193,4.0,4.0,59,0.00,,,0.05,197,Wunderground v.1.15,2013-03-07 23:01:00,
2013-03-07 15:06:00,58.1,43.8,29.96,West,259,3.0,5.0,59,0.00,,,0.05,204,Wunderground v.1.15,2013-03-07 23:06:00,
2013-03-07 15:12:00,58.1,44.3,29.96,West,261,3.0,3.0,60,0.00,,,0.05,223,Wunderground v.1.15,2013-03-07 23:12:00,
2013-03-07 15:17:00,58.1,43.8,29.96,WSW,243,4.0,6.0,59,0.00,,,0.05,207,Wunderground v.1.15,2013-03-07 23:17:00,
2013-03-07 15:23:00,58.1,44.3,29.96,WSW,245,5.0,6.0,60,0.00,,,0.05,216,Wunderground v.1.15,2013-03-07 23:23:00,
2013-03-07 15:29:00,58.2,44.4,29.96,SSW,207,5.0,8.0,60,0.00,,,0.05,262,Wunderground v.1.15,2013-03-07 23:29:00,
2013-03-07 15:36:00,58.2,44.8,29.96,SW,221,6.0,8.0,61,0.00,,,0.05,199,Wunderground v.1.15,2013-03-07 23:36:00,
2013-03-07 15:42:00,58.2,44.8,29.96,SSW,202,6.0,7.0,61,0.00,,,0.05,211,Wunderground v.1.15,2013-03-07 23:42:00,
2013-03-07 15:48:00,58.0,44.2,29.96,WSW,238,6.0,7.0,60,0.00,,,0.05,179,Wunderground v.1.15,2013-03-07 23:48:00,
2013-03-07 15:53:00,57.8,44.4,29.96,SSW,199,5.0,6.0,61,0.00,,,0.05,149,Wunderground v.1.15,2013-03-07 23:53:00,
2013-03-07 15:58:00,57.7,44.3,29.95,SW,221,3.0,6.0,61,0.00,,,0.05,144,Wunderground v.1.15,2013-03-07 23:58:00,
2013-03-07 16:04:00,57.5,43.7,29.95,WNW,285,3.0,6.0,60,0.00,,,0.05,172,Wunderground v.1.15,2013-03-08 00:04:00,
2013-03-07 16:10:00,57.5,43.7,29.95,SSW,207,4.0,6.0,60,0.00,,,0.05,135,Wunderground v.1.15,2013-03-08 00:10:00,
2013-03-07 16:15:00,57.4,44.1,29.95,NW,318,3.0,6.0,61,0.00,,,0.05,135,Wunderground v.1.15,2013-03-08 00:15:00,
2013-03-07 16:21:00,57.2,43.9,29.95,West,262,3.0,7.0,61,0.00,,,0.05,163,Wunderground v.1.15,2013-03-08 00:21:00,
2013-03-07 16:26:00,57.3,44.0,29.95,SSW,209,4.0,8.0,61,0.00,,,0.05,169,Wunderground v.1.15,2013-03-08 00:26:00,
2013-03-07 16:32:00,57.3,44.0,29.95,SW,214,4.0,8.0,61,0.00,,,0.05,142,Wunderground v.1.15,2013-03-08 00:32:00,
2013-03-07 16:38:00,57.2,44.3,29.95,WSW,242,5.0,8.0,62,0.00,,,0.05,167,Wunderground v.1.15,2013-03-08 00:38:00,
2013-03-07 16:45:00,57.1,44.2,29.95,West,268,5.0,6.0,62,0.00,,,0.05,132,Wunderground v.1.15,2013-03-08 00:45:00,
2013-03-07 16:50:00,57.1,44.6,29.95,West,262,5.0,8.0,63,0.00,,,0.05,137,Wunderground v.1.15,2013-03-08 00:50:00,
2013-03-07 16:55:00,57.0,44.9,29.95,West,259,5.0,7.0,64,0.00,,,0.05,72,Wunderground v.1.15,2013-03-08 00:55:00,
2013-03-07 17:01:00,56.8,45.2,29.95,SW,228,5.0,7.0,65,0.00,,,0.05,47,Wunderground v.1.15,2013-03-08 01:01:00,
2013-03-07 17:07:00,56.5,45.3,29.95,SW,221,5.0,9.0,66,0.00,,,0.05,42,Wunderground v.1.15,2013-03-08 01:07:00,
2013-03-07 17:12:00,56.4,45.2,29.95,WNW,288,3.0,6.0,66,0.00,,,0.05,33,Wunderground v.1.15,2013-03-08 01:12:00,
2013-03-07 17:18:00,56.4,45.6,29.95,West,279,2.0,6.0,67,0.00,,,0.05,28,Wunderground v.1.15,2013-03-08 01:18:00,
2013-03-07 17:24:00,56.3,44.7,29.95,WNW,296,2.0,3.0,65,0.00,,,0.05,21,Wunderground v.1.15,2013-03-08 01:24:00,
2013-03-07 17:30:00,56.2,44.6,29.95,WSW,241,1.0,3.0,65,0.00,,,0.05,18,Wunderground v.1.15,2013-03-08 01:30:00,
2013-03-07 17:35:00,56.1,44.1,29.95,NNE,24,1.0,2.0,64,0.00,,,0.05,14,Wunderground v.1.15,2013-03-08 01:35:00,
2013-03-07 17:41:00,56.0,43.6,29.95,West,269,1.0,2.0,63,0.00,,,0.05,9,Wunderground v.1.15,2013-03-08 01:41:00,
2013-03-07 17:47:00,55.8,43.8,29.95,SW,236,2.0,3.0,64,0.00,,,0.05,5,Wunderground v.1.15,2013-03-08 01:47:00,
2013-03-07 17:52:00,55.7,44.5,29.95,West,264,2.0,2.0,66,0.00,,,0.05,0,Wunderground v.1.15,2013-03-08 01:52:00,
2013-03-07 17:58:00,55.6,44.4,29.95,NW,312,3.0,6.0,66,0.00,,,0.05,0,Wunderground v.1.15,2013-03-08 01:58:00,
2013-03-07 18:03:00,55.4,44.6,29.95,NNE,24,3.0,4.0,67,0.00,,,0.05,0,Wunderground v.1.15,2013-03-08 02:03:00,
2013-03-07 18:09:00,55.3,44.9,29.95,SSE,153,3.0,5.0,68,0.00,,,0.05,0,Wunderground v.1.15,2013-03-08 02:09:00,
2013-03-07 18:15:00,55.2,44.8,29.95,WNW,296,3.0,3.0,68,0.00,,,0.05,0,Wunderground v.1.15,2013-03-08 02:15:00,
2013-03-07 18:21:00,55.1,44.7,29.95,West,259,2.0,2.0,68,0.00,,,0.05,0,Wunderground v.1.15,2013-03-08 02:21:00,
2013-03-07 18:27:00,55.0,45.0,29.95,ENE,71,2.0,2.0,69,0.00,,,0.05,0,Wunderground v.1.15,2013-03-08 02:27:00,
2013-03-07 18:33:00,55.0,45.0,29.95,East,81,1.0,3.0,69,0.00,,,0.05,0,Wunderground v.1.15,2013-03-08 02:33:00,
2013-03-07 18:39:00,54.9,44.9,29.95,NNE,30,1.0,3.0,69,0.00,,,0.05,0,Wunderground v.1.15,2013-03-08 02:39:00,
2013-03-07 18:44:00,54.9,45.3,29.95,ENE,78,1.0,1.0,70,0.00,,,0.05,0,Wunderground v.1.15,2013-03-08 02:44:00,
2013-03-07 18:50:00,54.6,45.4,29.94,East,86,1.0,3.0,71,0.00,,,0.05,0,Wunderground v.1.15,2013-03-08 02:50:00,
2013-03-07 18:56:00,54.2,45.4,29.94,SE,134,1.0,1.0,72,0.00,,,0.05,0,Wunderground v.1.15,2013-03-08 02:56:00,
2013-03-07 19:02:00,53.9,45.1,29.94,SE,139,1.0,1.0,72,0.00,,,0.05,0,Wunderground v.1.15,2013-03-08 03:02:00,
2013-03-07 19:08:00,53.7,44.9,29.94,SE,139,0.0,2.0,72,0.00,,,0.05,0,Wunderground v.1.15,2013-03-08 03:08:00,
2013-03-07 19:13:00,53.6,45.5,29.94,ENE,78,0.0,1.0,74,0.00,,,0.05,0,Wunderground v.1.15,2013-03-08 03:13:00,
2013-03-07 19:20:00,53.4,45.3,29.94,NNE,28,0.0,2.0,74,0.00,,,0.05,0,Wunderground v.1.15,2013-03-08 03:20:00,
2013-03-07 19:26:00,53.0,44.9,29.94,NE,42,0.0,1.0,74,0.00,,,0.05,0,Wunderground v.1.15,2013-03-08 03:26:00,
2013-03-07 19:32:00,52.4,44.7,29.94,NE,42,0.0,1.0,75,0.00,,,0.05,0,Wunderground v.1.15,2013-03-08 03:32:00,
2013-03-07 19:38:00,52.1,44.4,29.94,ESE,111,0.0,2.0,75,0.00,,,0.05,0,Wunderground v.1.15,2013-03-08 03:38:00,
2013-03-07 19:44:00,51.3,44.0,29.94,ESE,113,1.0,1.0,76,0.00,,,0.05,0,Wunderground v.1.15,2013-03-08 03:44:00,
2013-03-07 19:49:00,50.6,44.0,29.94,SE,129,1.0,2.0,78,0.00,,,0.05,0,Wunderground v.1.15,2013-03-08 03:49:00,
2013-03-07 19:55:00,49.8,43.5,29.94,SE,128,2.0,2.0,79,0.00,,,0.05,0,Wunderground v.1.15,2013-03-08 03:55:00,
2013-03-07 20:01:00,49.3,43.4,29.93,SE,138,2.0,3.0,80,0.00,,,0.05,0,Wunderground v.1.15,2013-03-08 04:01:00,
2013-03-07 20:07:00,49.1,43.5,29.93,SE,128,2.0,4.0,81,0.00,,,0.05,0,Wunderground v.1.15,2013-03-08 04:07:00,
2013-03-07 20:13:00,48.8,43.5,29.93,SE,146,3.0,4.0,82,0.00,,,0.05,0,Wunderground v.1.15,2013-03-08 04:13:00,
2013-03-07 20:19:00,48.8,43.5,29.93,SE,131,2.0,4.0,82,0.00,,,0.05,0,Wunderground v.1.15,2013-03-08 04:19:00,
2013-03-07 20:24:00,48.7,43.8,29.93,SE,143,2.0,4.0,83,0.00,,,0.05,0,Wunderground v.1.15,2013-03-08 04:24:00,
2013-03-07 20:30:00,48.5,43.6,29.93,SE,132,3.0,4.0,83,0.00,,,0.05,0,Wunderground v.1.15,2013-03-08 04:30:00,
2013-03-07 20:35:00,48.5,43.9,29.93,SE,135,3.0,4.0,84,0.00,,,0.05,0,Wunderground v.1.15,2013-03-08 04:35:00,
2013-03-07 20:41:00,48.6,44.0,29.93,SE,126,3.0,3.0,84,0.00,,,0.05,0,Wunderground v.1.15,2013-03-08 04:41:00,
2013-03-07 20:47:00,48.6,44.0,29.93,SE,135,3.0,3.0,84,0.00,,,0.05,0,Wunderground v.1.15,2013-03-08 04:47:00,
2013-03-07 20:53:00,48.5,43.9,29.93,ESE,120,2.0,2.0,84,0.00,,,0.05,0,Wunderground v.1.15,2013-03-08 04:53:00,
2013-03-07 20:59:00,48.4,43.8,29.93,ESE,120,0.0,2.0,84,0.00,,,0.05,0,Wunderground v.1.15,2013-03-08 04:59:00,
2013-03-07 21:00:00,48.3,43.7,29.93,ESE,120,0.0,2.0,84,0.00,,,0.05,0,Wunderground v.1.15,2013-03-08 05:00:00,
2013-03-07 21:01:00,48.2,43.6,29.93,ESE,120,0.0,0.0,84,0.00,,,0.05,0,Wunderground v.1.15,2013-03-08 05:01:00,
2013-03-07 21:02:00,48.1,43.5,29.93,ESE,120,0.0,0.0,84,0.00,,,0.05,0,Wunderground v.1.15,2013-03-08 05:02:00,
2013-03-07 21:08:00,47.9,43.6,29.93,ESE,105,0.0,2.0,85,0.00,,,0.05,0,Wunderground v.1.15,2013-03-08 05:08:00,
2013-03-07 21:14:00,47.7,43.4,29.93,SE,138,2.0,5.0,85,0.00,,,0.05,0,Wunderground v.1.15,2013-03-08 05:14:00,
2013-03-07 21:19:00,47.7,43.7,29.93,SE,139,4.0,5.0,86,0.00,,,0.05,0,Wunderground v.1.15,2013-03-08 05:19:00,
2013-03-07 21:25:00,47.8,43.8,29.93,ESE,110,4.0,5.0,86,0.00,,,0.05,0,Wunderground v.1.15,2013-03-08 05:25:00,
2013-03-07 21:31:00,47.9,43.9,29.93,ESE,119,3.0,5.0,86,0.00,,,0.05,0,Wunderground v.1.15,2013-03-08 05:31:00,
2013-03-07 21:37:00,48.1,44.1,29.93,SSE,147,4.0,5.0,86,0.00,,,0.05,0,Wunderground v.1.15,2013-03-08 05:37:00,
2013-03-07 21:43:00,48.2,44.2,29.93,ESE,121,4.0,5.0,86,0.00,,,0.05,0,Wunderground v.1.15,2013-03-08 05:43:00,
2013-03-07 21:48:00,48.3,44.3,29.92,SE,130,4.0,5.0,86,0.00,,,0.05,0,Wunderground v.1.15,2013-03-08 05:48:00,
2013-03-07 21:53:00,48.4,44.1,29.92,SE,139,4.0,4.0,85,0.00,,,0.05,0,Wunderground v.1.15,2013-03-08 05:53:00,
2013-03-07 21:59:00,48.4,44.1,29.92,SE,144,4.0,5.0,85,0.00,,,0.05,0,Wunderground v.1.15,2013-03-08 05:59:00,
2013-03-07 22:05:00,48.3,44.0,29.92,ESE,123,4.0,4.0,85,0.00,,,0.05,0,Wunderground v.1.15,2013-03-08 06:05:00,
2013-03-07 22:11:00,48.2,43.9,29.92,SE,137,2.0,4.0,85,0.00,,,0.05,0,Wunderground v.1.15,2013-03-08 06:11:00,
2013-03-07 22:16:00,48.0,43.7,29.91,ESE,121,2.0,3.0,85,0.00,,,0.05,0,Wunderground v.1.15,2013-03-08 06:16:00,
2013-03-07 22:22:00,47.9,43.6,29.91,ESE,121,2.0,2.0,85,0.00,,,0.05,0,Wunderground v.1.15,2013-03-08 06:22:00,
2013-03-07 22:28:00,47.8,43.5,29.90,ESE,123,2.0,4.0,85,0.00,,,0.05,0,Wunderground v.1.15,2013-03-08 06:28:00,
2013-03-07 22:34:00,47.7,43.4,29.90,ESE,109,3.0,3.0,85,0.00,,,0.05,0,Wunderground v.1.15,2013-03-08 06:34:00,
2013-03-07 22:40:00,47.7,43.4,29.90,East,96,2.0,3.0,85,0.00,,,0.05,0,Wunderground v.1.15,2013-03-08 06:40:00,
2013-03-07 22:45:00,47.9,43.6,29.90,East,91,1.0,2.0,85,0.00,,,0.05,0,Wunderground v.1.15,2013-03-08 06:45:00,
2013-03-07 22:52:00,48.1,43.8,29.89,ESE,105,1.0,1.0,85,0.00,,,0.05,0,Wunderground v.1.15,2013-03-08 06:52:00,
2013-03-07 22:57:00,48.5,44.2,29.89,ESE,105,1.0,2.0,85,0.00,,,0.05,0,Wunderground v.1.15,2013-03-08 06:57:00,
2013-03-07 23:03:00,49.0,44.4,29.89,ENE,63,1.0,5.0,84,0.00,,,0.05,0,Wunderground v.1.15,2013-03-08 07:03:00,
2013-03-07 23:08:00,49.9,44.9,29.89,ENE,59,3.0,5.0,83,0.00,,,0.05,0,Wunderground v.1.15,2013-03-08 07:08:00,
2013-03-07 23:14:00,50.6,45.0,29.89,NE,44,4.0,4.0,81,0.00,,,0.05,0,Wunderground v.1.15,2013-03-08 07:14:00,
2013-03-07 23:19:00,51.2,44.9,29.89,ENE,76,3.0,5.0,79,0.00,,,0.05,0,Wunderground v.1.15,2013-03-08 07:19:00,
2013-03-07 23:25:00,51.6,45.0,29.89,ENE,68,2.0,3.0,78,0.00,,,0.05,0,Wunderground v.1.15,2013-03-08 07:25:00,
2013-03-07 23:31:00,52.0,45.0,29.88,ENE,67,3.0,7.0,77,0.00,,,0.05,0,Wunderground v.1.15,2013-03-08 07:31:00,
2013-03-07 23:37:00,52.4,45.1,29.88,ENE,65,5.0,11.0,76,0.00,,,0.05,0,Wunderground v.1.15,2013-03-08 07:37:00,
2013-03-07 23:43:00,52.6,44.9,29.88,ENE,66,5.0,9.0,75,0.00,,,0.05,0,Wunderground v.1.15,2013-03-08 07:43:00,
2013-03-07 23:49:00,52.7,45.0,29.87,ENE,63,5.0,9.0,75,0.00,,,0.05,0,Wunderground v.1.15,2013-03-08 07:49:00,
2013-03-07 23:55:00,52.8,44.7,29.87,NE,54,4.0,10.0,74,0.00,,,0.05,0,Wunderground v.1.15,2013-03-08 07:55:00,